createdAt,value
2023-03-15T00:01:20.206Z,81.23
2023-03-15T00:03:48.951Z,81.80
2023-03-15T00:06:18.150Z,81.82
2023-03-15T00:08:48.442Z,81.68
2023-03-15T00:11:17.860Z,82.10
2023-03-15T00:13:47.870Z,81.53
2023-03-15T00:16:18.914Z,81.11
2023-03-15T00:18:48.282Z,81.18
2023-03-15T00:21:16.925Z,82.16
2023-03-15T00:23:45.770Z,81.51
2023-03-15T00:26:15.368Z,82.17
2023-03-15T00:28:44.203Z,81.99
2023-03-15T00:31:25.083Z,81.66
2023-03-15T00:33:57.195Z,81.55
2023-03-15T00:36:26.846Z,81.58
2023-03-15T00:38:57.725Z,81.82
2023-03-15T00:41:26.648Z,81.82
2023-03-15T00:43:55.527Z,81.48
2023-03-15T00:46:24.531Z,81.64
2023-03-15T00:48:53.885Z,81.35
2023-03-15T00:51:25.430Z,81.19
2023-03-15T00:53:55.095Z,82.07
2023-03-15T00:56:27.690Z,81.90
2023-03-15T00:58:56.588Z,81.28
2023-03-15T01:01:30.481Z,81.81
2023-03-15T01:03:59.318Z,82.40
2023-03-15T01:06:30.283Z,82.51
2023-03-15T01:09:02.465Z,81.82
2023-03-15T01:11:31.422Z,81.80
2023-03-15T01:14:01.303Z,81.56
2023-03-15T01:16:30.838Z,82.31
2023-03-15T01:18:59.666Z,82.32
2023-03-15T01:21:28.845Z,81.21
2023-03-15T01:23:57.663Z,81.38
2023-03-15T01:26:26.609Z,81.77
2023-03-15T01:28:56.550Z,82.44
2023-03-15T01:31:29.247Z,81.52
2023-03-15T01:33:59.628Z,81.97
2023-03-15T01:36:32.561Z,82.21
2023-03-15T01:39:01.281Z,82.85
2023-03-15T01:41:41.948Z,83.39
2023-03-15T01:44:16.371Z,82.05
2023-03-15T01:46:47.267Z,82.12
2023-03-15T01:49:30.104Z,82.45
2023-03-15T01:52:07.969Z,81.60
2023-03-15T01:55:10.861Z,82.47
2023-03-15T01:57:50.832Z,82.10
2023-03-15T02:00:22.097Z,83.11
2023-03-15T02:03:15.222Z,82.61
2023-03-15T02:05:55.402Z,81.53
2023-03-15T02:08:39.271Z,82.50
2023-03-15T02:11:08.685Z,81.97
2023-03-15T02:13:37.887Z,81.12
2023-03-15T02:16:11.293Z,82.32
2023-03-15T02:18:54.945Z,81.45
2023-03-15T02:21:31.841Z,81.17
2023-03-15T02:24:10.274Z,82.28
2023-03-15T02:26:58.939Z,80.79
2023-03-15T02:29:30.088Z,81.58
2023-03-15T02:31:59.762Z,80.60
2023-03-15T02:34:29.166Z,81.35
2023-03-15T02:36:58.626Z,81.28
2023-03-15T02:39:28.993Z,80.94
2023-03-15T02:42:02.748Z,80.42
2023-03-15T02:44:40.634Z,81.07
2023-03-15T02:47:20.450Z,80.60
2023-03-15T02:49:52.710Z,80.74
2023-03-15T02:52:23.550Z,80.64
2023-03-15T02:54:52.674Z,79.88
2023-03-15T02:57:21.928Z,80.53
2023-03-15T02:59:51.721Z,80.28
2023-03-15T03:02:21.341Z,80.59
2023-03-15T03:04:53.492Z,80.46
2023-03-15T03:07:22.352Z,80.42
2023-03-15T03:09:57.587Z,80.70
2023-03-15T03:12:28.481Z,80.53
2023-03-15T03:14:57.388Z,80.10
2023-03-15T03:17:26.626Z,79.77
2023-03-15T03:19:55.918Z,80.20
2023-03-15T03:22:32.747Z,80.22
2023-03-15T03:25:01.595Z,80.14
2023-03-15T03:27:31.073Z,79.80
2023-03-15T03:30:01.543Z,79.66
2023-03-15T03:32:30.272Z,79.98
2023-03-15T03:34:59.275Z,80.32
2023-03-15T03:37:28.889Z,79.99
2023-03-15T03:40:08.531Z,80.37
2023-03-15T03:42:40.830Z,80.27
2023-03-15T03:45:10.186Z,80.37
2023-03-15T03:47:43.419Z,79.72
2023-03-15T03:50:13.217Z,79.43
2023-03-15T03:52:44.580Z,79.38
2023-03-15T03:55:26.000Z,79.70
2023-03-15T03:57:55.840Z,79.03
2023-03-15T04:00:45.228Z,79.26
2023-03-15T04:03:14.453Z,79.21
2023-03-15T04:05:47.903Z,78.90
2023-03-15T04:08:21.592Z,79.11
2023-03-15T04:10:58.561Z,78.43
2023-03-15T04:13:32.065Z,78.89
2023-03-15T04:16:04.613Z,78.70
2023-03-15T04:18:41.791Z,78.57
2023-03-15T04:21:11.584Z,78.47
2023-03-15T04:23:43.298Z,77.70
2023-03-15T04:26:30.359Z,78.45
2023-03-15T04:29:19.323Z,78.66
2023-03-15T04:32:08.528Z,78.60
2023-03-15T04:34:52.328Z,78.44
2023-03-15T04:37:35.287Z,78.39
2023-03-15T04:40:30.411Z,78.03
2023-03-15T04:43:19.320Z,77.97
2023-03-15T04:46:09.716Z,78.07
2023-03-15T04:48:56.908Z,78.01
2023-03-15T04:51:26.958Z,77.86
2023-03-15T04:54:31.437Z,77.70
2023-03-15T04:57:20.416Z,77.63
2023-03-15T05:00:22.549Z,77.61
2023-03-15T05:03:29.916Z,77.70
2023-03-15T05:06:08.869Z,77.39
2023-03-15T05:09:04.915Z,77.54
2023-03-15T05:11:53.426Z,77.62
2023-03-15T05:14:43.809Z,78.21
2023-03-15T05:17:38.998Z,77.77
2023-03-15T05:20:17.373Z,77.75
2023-03-15T05:23:05.554Z,78.28
2023-03-15T05:25:56.578Z,77.88
2023-03-15T05:28:48.391Z,78.18
2023-03-15T05:31:37.821Z,77.67
2023-03-15T05:34:28.368Z,78.12
2023-03-15T05:37:33.195Z,77.89
2023-03-15T05:40:20.171Z,77.66
2023-03-15T05:43:21.595Z,77.97
2023-03-15T05:46:11.611Z,78.27
2023-03-15T05:49:12.469Z,78.24
2023-03-15T05:52:01.633Z,77.89
2023-03-15T05:54:51.430Z,77.85
2023-03-15T05:57:38.857Z,78.12
2023-03-15T06:00:20.396Z,77.84
2023-03-15T06:02:53.828Z,77.84
2023-03-15T06:05:34.516Z,77.87
2023-03-15T06:08:06.035Z,77.73
2023-03-15T06:10:36.728Z,77.76
2023-03-15T06:13:09.185Z,78.05
2023-03-15T06:15:38.098Z,77.84
2023-03-15T06:18:08.863Z,77.90
2023-03-15T06:20:38.745Z,77.51
2023-03-15T06:23:15.340Z,77.36
2023-03-15T06:25:47.726Z,77.44
2023-03-15T06:28:17.558Z,77.49
2023-03-15T06:30:52.902Z,76.48
2023-03-15T06:33:26.722Z,76.60
2023-03-15T06:35:56.479Z,76.63
2023-03-15T06:38:27.685Z,76.21
2023-03-15T06:40:57.129Z,76.32
2023-03-15T06:43:26.547Z,76.33
2023-03-15T06:45:57.767Z,75.50
2023-03-15T06:48:27.786Z,76.03
2023-03-15T06:50:58.368Z,75.62
2023-03-15T06:53:27.076Z,75.37
2023-03-15T06:55:55.844Z,75.29
2023-03-15T06:58:24.752Z,74.93
2023-03-15T07:00:53.708Z,74.53
2023-03-15T07:03:24.464Z,74.02
2023-03-15T07:05:55.037Z,73.58
2023-03-15T07:08:26.067Z,73.76
2023-03-15T07:10:55.049Z,72.96
2023-03-15T07:13:23.690Z,72.36
2023-03-15T07:15:54.411Z,72.70
2023-03-15T07:18:23.813Z,72.58
2023-03-15T07:21:00.171Z,72.14
2023-03-15T07:23:29.368Z,72.18
2023-03-15T07:25:58.418Z,71.76
2023-03-15T07:28:28.554Z,72.21
2023-03-15T07:31:03.244Z,72.51
2023-03-15T07:33:34.722Z,72.33
2023-03-15T07:36:05.126Z,72.72
2023-03-15T07:38:35.439Z,72.72
2023-03-15T07:41:08.090Z,73.11
2023-03-15T07:43:39.488Z,72.78
2023-03-15T07:46:15.545Z,73.21
2023-03-15T07:48:44.506Z,73.19
2023-03-15T07:51:13.906Z,73.14
2023-03-15T07:53:42.707Z,72.81
2023-03-15T07:56:11.528Z,73.31
2023-03-15T07:58:40.483Z,74.05
2023-03-15T08:01:10.104Z,73.69
2023-03-15T08:03:39.208Z,74.04
2023-03-15T08:06:08.222Z,74.14
2023-03-15T08:08:37.030Z,74.03
2023-03-15T08:11:07.269Z,74.08
2023-03-15T08:13:36.504Z,74.23
2023-03-15T08:16:08.102Z,74.44
2023-03-15T08:18:36.878Z,74.46
2023-03-15T08:21:06.010Z,74.20
2023-03-15T08:23:34.845Z,74.37
2023-03-15T08:26:03.787Z,74.44
2023-03-15T08:28:32.583Z,74.70
2023-03-15T08:31:01.475Z,74.90
2023-03-15T08:33:31.184Z,75.25
2023-03-15T08:35:59.866Z,74.98
2023-03-15T08:38:28.704Z,75.07
2023-03-15T08:41:00.767Z,75.25
2023-03-15T08:43:30.291Z,75.25
2023-03-15T08:46:01.448Z,75.75
2023-03-15T08:48:32.398Z,76.10
2023-03-15T08:51:05.385Z,75.83
2023-03-15T08:53:35.105Z,76.22
2023-03-15T08:56:04.826Z,76.35
2023-03-15T08:58:33.682Z,76.01
2023-03-15T09:01:02.641Z,75.99
2023-03-15T09:03:33.562Z,76.10
2023-03-15T09:06:02.526Z,76.70
2023-03-15T09:08:34.215Z,76.53
2023-03-15T09:11:04.967Z,76.34
2023-03-15T09:13:35.948Z,75.94
2023-03-15T09:16:06.980Z,75.99
2023-03-15T09:18:41.509Z,76.76
2023-03-15T09:21:12.044Z,77.35
2023-03-15T09:23:41.230Z,77.73
2023-03-15T09:26:10.527Z,77.71
2023-03-15T09:28:39.352Z,76.71
2023-03-15T09:31:09.015Z,76.84
2023-03-15T09:33:40.632Z,77.18
2023-03-15T09:36:09.587Z,77.23
2023-03-15T09:38:38.291Z,77.01
2023-03-15T09:41:07.234Z,77.00
2023-03-15T09:43:45.006Z,77.04
2023-03-15T09:46:36.573Z,76.36
2023-03-15T09:49:26.849Z,77.10
2023-03-15T09:52:04.647Z,76.46
2023-03-15T09:54:49.718Z,76.73
2023-03-15T09:57:20.710Z,76.78
2023-03-15T09:59:54.139Z,76.81
2023-03-15T10:02:31.377Z,77.62
2023-03-15T10:05:14.124Z,77.35
2023-03-15T10:07:43.567Z,77.28
2023-03-15T10:10:40.782Z,77.75
2023-03-15T10:13:18.434Z,78.25
2023-03-15T10:16:20.390Z,77.75
2023-03-15T10:19:17.998Z,77.81
2023-03-15T10:22:01.957Z,78.34
2023-03-15T10:24:50.937Z,78.08
2023-03-15T10:27:33.031Z,78.56
2023-03-15T10:30:03.254Z,78.46
2023-03-15T10:32:39.415Z,78.55
2023-03-15T10:35:16.421Z,78.76
2023-03-15T10:37:45.768Z,78.69
2023-03-15T10:40:19.166Z,78.28
2023-03-15T10:42:48.651Z,78.88
2023-03-15T10:45:23.834Z,78.98
2023-03-15T10:48:00.418Z,78.88
2023-03-15T10:50:33.830Z,78.72
2023-03-15T10:53:12.134Z,78.14
2023-03-15T10:55:46.354Z,79.28
2023-03-15T10:58:17.984Z,79.39
2023-03-15T11:00:59.541Z,78.86
2023-03-15T11:03:28.763Z,78.60
2023-03-15T11:05:59.912Z,78.95
2023-03-15T11:08:41.395Z,79.44
2023-03-15T11:11:11.443Z,78.92
2023-03-15T11:13:43.036Z,79.27
2023-03-15T11:16:17.218Z,78.99
2023-03-15T11:18:59.124Z,79.01
2023-03-15T11:21:38.663Z,79.27
2023-03-15T11:24:09.305Z,78.74
2023-03-15T11:26:40.792Z,79.04
2023-03-15T11:29:35.597Z,79.26
2023-03-15T11:32:19.029Z,79.16
2023-03-15T11:35:14.962Z,79.13
2023-03-15T11:37:49.844Z,79.49
2023-03-15T11:40:34.043Z,79.72
2023-03-15T11:43:30.898Z,79.68
2023-03-15T11:46:09.682Z,80.07
2023-03-15T11:48:53.677Z,79.46
2023-03-15T11:51:22.485Z,79.48
2023-03-15T11:53:58.691Z,79.77
2023-03-15T11:56:49.525Z,79.78
2023-03-15T11:59:26.993Z,79.67
2023-03-15T12:02:15.428Z,80.17
2023-03-15T12:04:47.051Z,80.07
2023-03-15T12:07:20.628Z,80.49
2023-03-15T12:09:58.676Z,80.41
2023-03-15T12:12:27.935Z,80.15
2023-03-15T12:15:03.852Z,80.73
2023-03-15T12:17:44.910Z,80.16
2023-03-15T12:20:20.949Z,80.50
2023-03-15T12:23:06.816Z,81.15
2023-03-15T12:26:04.172Z,81.17
2023-03-15T12:28:40.166Z,81.04
2023-03-15T12:31:17.914Z,80.68
2023-03-15T12:33:59.222Z,80.52
2023-03-15T12:36:42.910Z,80.82
2023-03-15T12:39:20.942Z,81.42
2023-03-15T12:41:52.426Z,81.72
2023-03-15T12:44:22.619Z,80.91
2023-03-15T12:46:51.510Z,81.30
2023-03-15T12:49:26.401Z,81.97
2023-03-15T12:51:59.714Z,81.29
2023-03-15T12:54:51.841Z,81.42
2023-03-15T12:57:30.080Z,81.45
2023-03-15T13:00:29.708Z,81.77
2023-03-15T13:03:22.822Z,81.61
2023-03-15T13:06:03.772Z,81.77
2023-03-15T13:08:59.516Z,81.90
2023-03-15T13:11:43.809Z,82.28
2023-03-15T13:14:33.743Z,82.00
2023-03-15T13:17:22.703Z,82.00
2023-03-15T13:20:12.336Z,82.04
2023-03-15T13:22:56.990Z,82.49
2023-03-15T13:26:08.708Z,82.34
2023-03-15T13:29:01.640Z,82.25
2023-03-15T13:31:35.731Z,82.30
2023-03-15T13:34:25.659Z,82.91
2023-03-15T13:37:00.187Z,82.65
2023-03-15T13:39:36.152Z,82.83
2023-03-15T13:42:21.745Z,83.11
2023-03-15T13:45:04.580Z,83.50
2023-03-15T13:47:35.899Z,82.80
2023-03-15T13:50:06.784Z,83.18
2023-03-15T13:52:38.393Z,82.45
2023-03-15T13:55:08.780Z,83.27
2023-03-15T13:57:38.599Z,82.97
2023-03-15T14:00:12.460Z,82.99
2023-03-15T14:02:47.151Z,83.11
2023-03-15T14:05:18.614Z,83.22
2023-03-15T14:07:51.900Z,82.64
2023-03-15T14:10:29.165Z,82.66
2023-03-15T14:13:00.023Z,83.53
2023-03-15T14:15:42.664Z,82.98
2023-03-15T14:18:11.760Z,83.03
2023-03-15T14:20:53.865Z,83.74
2023-03-15T14:23:26.003Z,83.50
2023-03-15T14:25:57.903Z,83.87
2023-03-15T14:28:26.789Z,83.58
2023-03-15T14:30:58.783Z,84.32
2023-03-15T14:33:30.353Z,83.45
2023-03-15T14:38:39.396Z,83.62
2023-03-15T14:41:19.402Z,83.85
2023-03-15T14:43:48.801Z,83.54
2023-03-15T14:46:18.060Z,83.67
2023-03-15T14:48:48.105Z,83.87
2023-03-15T14:51:26.398Z,84.04
2023-03-15T14:54:00.424Z,84.37
2023-03-15T14:56:30.066Z,84.09
2023-03-15T14:58:59.022Z,84.06
2023-03-15T15:01:28.819Z,84.37
2023-03-15T15:04:03.790Z,84.26
2023-03-15T15:06:33.005Z,83.91
2023-03-15T15:09:06.595Z,84.28
2023-03-15T15:11:35.728Z,84.78
2023-03-15T15:14:05.133Z,84.42
2023-03-15T15:16:34.578Z,84.27
2023-03-15T15:19:03.548Z,84.93
2023-03-15T15:21:34.050Z,85.04
2023-03-15T15:24:04.966Z,84.56
2023-03-15T15:26:35.314Z,84.89
2023-03-15T15:29:04.690Z,84.59
2023-03-15T15:31:36.247Z,84.85
2023-03-15T15:34:06.037Z,84.80
2023-03-15T15:36:38.709Z,84.73
2023-03-15T15:39:30.993Z,85.11
2023-03-15T15:42:01.243Z,84.85
2023-03-15T15:44:30.962Z,84.91
2023-03-15T15:47:02.096Z,84.60
2023-03-15T15:49:31.107Z,85.17
2023-03-15T15:52:03.490Z,85.59
2023-03-15T15:54:36.342Z,85.17
2023-03-15T15:57:05.927Z,85.40
2023-03-15T15:59:35.188Z,86.01
2023-03-15T16:02:04.742Z,85.34
2023-03-15T16:04:36.693Z,85.44
2023-03-15T16:07:06.081Z,85.53
2023-03-15T16:09:41.400Z,85.74
2023-03-15T16:12:18.721Z,85.58
2023-03-15T16:14:48.175Z,85.60
2023-03-15T16:17:24.292Z,85.79
2023-03-15T16:20:01.165Z,85.70
2023-03-15T16:22:33.711Z,85.97
2023-03-15T16:25:08.317Z,85.81
2023-03-15T16:27:38.035Z,86.11
2023-03-15T16:30:08.757Z,85.89
2023-03-15T16:32:44.472Z,86.12
2023-03-15T16:35:17.849Z,86.06
2023-03-15T16:37:48.195Z,86.29
2023-03-15T16:40:31.606Z,86.55
2023-03-15T16:43:02.906Z,86.79
2023-03-15T16:45:32.545Z,86.87
2023-03-15T16:48:03.426Z,86.62
2023-03-15T16:50:38.949Z,87.14
2023-03-15T16:53:11.918Z,87.00
2023-03-15T16:55:42.591Z,86.98
2023-03-15T16:58:20.382Z,87.35
2023-03-15T17:00:50.916Z,87.57
2023-03-15T17:03:20.793Z,87.69
2023-03-15T17:05:50.621Z,87.44
2023-03-15T17:08:26.388Z,87.65
2023-03-15T17:10:55.577Z,87.76
2023-03-15T17:13:30.187Z,87.82
2023-03-15T17:15:59.118Z,88.11
2023-03-15T17:18:29.143Z,87.50
2023-03-15T17:20:58.118Z,88.18
2023-03-15T17:23:27.337Z,88.40
2023-03-15T17:25:55.952Z,88.21
2023-03-15T17:28:25.157Z,88.33
2023-03-15T17:30:59.790Z,88.45
2023-03-15T17:33:37.655Z,88.55
2023-03-15T17:36:11.790Z,89.39
2023-03-15T17:38:43.314Z,89.25
2023-03-15T17:41:24.668Z,89.41
2023-03-15T17:43:53.956Z,89.08
2023-03-15T17:46:28.876Z,89.53
2023-03-15T17:49:01.942Z,89.50
2023-03-15T17:51:36.466Z,89.62
2023-03-15T17:54:28.168Z,89.79
2023-03-15T17:57:00.123Z,89.62
2023-03-15T17:59:29.346Z,89.65
2023-03-15T18:01:58.818Z,89.22
2023-03-15T18:04:27.585Z,89.19
2023-03-15T18:06:56.487Z,90.09
2023-03-15T18:09:27.122Z,89.76
2023-03-15T18:11:55.870Z,89.87
2023-03-15T18:14:24.779Z,89.80
2023-03-15T18:16:54.673Z,90.20
2023-03-15T18:19:24.342Z,90.36
2023-03-15T18:21:52.967Z,90.69
2023-03-15T18:24:22.255Z,90.47
2023-03-15T18:26:53.559Z,90.51
2023-03-15T18:29:22.198Z,90.31
2023-03-15T18:31:53.257Z,90.74
2023-03-15T18:34:23.913Z,90.90
2023-03-15T18:36:52.797Z,90.19
2023-03-15T18:39:24.765Z,90.83
2023-03-15T18:41:54.095Z,90.68
2023-03-15T18:44:23.524Z,91.23
2023-03-15T18:46:53.074Z,91.00
2023-03-15T18:49:22.154Z,90.75
2023-03-15T18:51:50.953Z,91.10
2023-03-15T18:54:20.243Z,91.11
2023-03-15T18:56:52.042Z,90.71
2023-03-15T18:59:20.923Z,91.61
2023-03-15T19:01:50.076Z,91.08
2023-03-15T19:04:19.217Z,91.09
2023-03-15T19:06:47.987Z,91.10
2023-03-15T19:09:17.000Z,91.28
2023-03-15T19:11:46.274Z,91.07
2023-03-15T19:14:15.139Z,91.43
2023-03-15T19:16:44.059Z,90.99
2023-03-15T19:19:12.688Z,91.65
2023-03-15T19:21:43.213Z,91.59
2023-03-15T19:24:12.137Z,91.58
2023-03-15T19:26:41.006Z,91.52
2023-03-15T19:29:09.681Z,90.77
2023-03-15T19:31:39.575Z,91.42
2023-03-15T19:34:08.323Z,91.34
2023-03-15T19:36:37.176Z,91.33
2023-03-15T19:39:07.985Z,91.99
2023-03-15T19:41:37.891Z,91.29
2023-03-15T19:44:06.560Z,91.44
2023-03-15T19:46:35.926Z,91.72
2023-03-15T19:49:05.159Z,91.97
2023-03-15T19:51:33.776Z,91.63
2023-03-15T19:54:03.304Z,91.81
2023-03-15T19:56:32.477Z,91.87
2023-03-15T19:59:01.478Z,91.99
2023-03-15T20:01:30.580Z,91.98
2023-03-15T20:04:00.081Z,91.92
2023-03-15T20:06:28.918Z,91.68
2023-03-15T20:08:58.044Z,91.80
2023-03-15T20:11:29.942Z,91.86
2023-03-15T20:13:59.361Z,91.88
2023-03-15T20:16:28.052Z,91.95
2023-03-15T20:18:57.176Z,92.21
2023-03-15T20:21:25.857Z,91.91
2023-03-15T20:23:54.959Z,92.39
2023-03-15T20:26:25.824Z,92.09
2023-03-15T20:28:54.549Z,92.01
2023-03-15T20:31:23.583Z,92.24
2023-03-15T20:33:52.506Z,91.94
2023-03-15T20:36:22.775Z,92.03
2023-03-15T20:38:52.003Z,92.64
2023-03-15T20:41:20.698Z,92.25
2023-03-15T20:43:49.455Z,91.73
2023-03-15T20:46:20.449Z,92.02
2023-03-15T20:48:49.457Z,92.11
2023-03-15T20:51:19.138Z,92.00
2023-03-15T20:53:48.838Z,91.74
2023-03-15T20:56:18.704Z,91.23
2023-03-15T20:58:48.340Z,91.32
2023-03-15T21:01:17.585Z,91.07
2023-03-15T21:03:49.070Z,90.92
2023-03-15T21:06:18.519Z,91.15
2023-03-15T21:08:47.299Z,90.45
2023-03-15T21:11:16.201Z,90.69
2023-03-15T21:13:45.099Z,90.61
2023-03-15T21:16:14.374Z,90.48
2023-03-15T21:18:45.621Z,90.85
2023-03-15T21:21:14.673Z,90.67
2023-03-15T21:23:43.460Z,90.22
2023-03-15T21:26:14.283Z,90.56
2023-03-15T21:28:43.097Z,90.31
2023-03-15T21:31:12.777Z,90.21
2023-03-15T21:33:41.663Z,90.18
2023-03-15T21:36:13.119Z,90.54
2023-03-15T21:38:42.031Z,89.98
2023-03-15T21:41:12.397Z,89.92
2023-03-15T21:43:41.434Z,89.71
2023-03-15T21:46:13.757Z,89.45
2023-03-15T21:48:42.740Z,89.36
2023-03-15T21:51:12.992Z,88.94
2023-03-15T21:53:42.808Z,88.76
2023-03-15T21:56:14.513Z,88.20
2023-03-15T21:58:43.494Z,88.45
2023-03-15T22:01:15.494Z,88.28
2023-03-15T22:03:45.346Z,88.35
2023-03-15T22:06:17.296Z,88.58
2023-03-15T22:08:46.342Z,88.41
2023-03-15T22:11:16.196Z,88.79
2023-03-15T22:13:44.997Z,88.19
2023-03-15T22:16:14.044Z,88.67
2023-03-15T22:18:42.710Z,88.62
2023-03-15T22:21:11.978Z,88.85
2023-03-15T22:23:40.800Z,88.84
2023-03-15T22:26:09.828Z,88.97
2023-03-15T22:28:38.593Z,88.60
2023-03-15T22:31:12.153Z,88.59
2023-03-15T22:33:41.307Z,88.56
2023-03-15T22:36:09.785Z,88.21
2023-03-15T22:38:40.996Z,88.12
2023-03-15T22:41:11.890Z,88.91
2023-03-15T22:43:40.656Z,88.88
2023-03-15T22:46:10.025Z,88.79
2023-03-15T22:48:39.341Z,88.84
2023-03-15T22:51:14.876Z,88.71
2023-03-15T22:53:44.050Z,88.59
2023-03-15T22:56:13.091Z,88.66
2023-03-15T22:58:41.924Z,88.42
2023-03-15T23:01:11.694Z,87.84
2023-03-15T23:03:40.821Z,88.31
2023-03-15T23:06:10.076Z,88.42
2023-03-15T23:08:38.976Z,88.38
2023-03-15T23:11:07.675Z,88.06
2023-03-15T23:13:36.477Z,88.27
2023-03-15T23:16:05.435Z,88.26
2023-03-15T23:18:34.962Z,88.23
2023-03-15T23:21:12.903Z,88.06
2023-03-15T23:23:43.333Z,88.14
2023-03-15T23:26:17.419Z,87.95
2023-03-15T23:28:46.018Z,88.10
2023-03-15T23:31:14.872Z,87.67
2023-03-15T23:33:47.934Z,87.93
2023-03-15T23:36:16.963Z,87.72
2023-03-15T23:38:45.780Z,87.46
2023-03-15T23:41:14.619Z,87.46
2023-03-15T23:43:43.406Z,87.29
2023-03-15T23:46:15.033Z,87.44
2023-03-15T23:48:43.901Z,87.30
2023-03-15T23:51:13.264Z,87.26
2023-03-15T23:53:42.206Z,87.02
2023-03-15T23:56:10.818Z,86.94
2023-03-15T23:58:42.240Z,86.64
